Terminal Aerodrome Forecast
Issued by NWS

Home | Current Version | Previous Version | Text Only | Print | Product List | Glossary On
Versions: 1 2 3 4 5 6 7 8 9 10 11 12 13 14 15
000
FTUS45 KRIW 282300
TAFCPR
TAF
KCPR 282321Z 2900/2924 VRB06KT P6SM BKN045 OVC070
     FM290130 36008KT P6SM VCSH BKN025
     FM290700 VRB05KT P6SM VCFG FEW005 SCT025
     FM291700 20008KT P6SM FEW070
     FM291900 20012G18KT P6SM FEW200=

USA.gov is the U.S. government's official web portal to all federal, state and local government web resources and services.